Time;durP1;ratioP1;P1;durP2;ratioP2;P2;SDS_P1;SDS_P2;PMS_P1;PMS_P2;Temp;Humidity;BMP_temperature;BMP_pressure;BME280_temperature;BME280_humidity;BME280_pressure;Samples;Min_cycle;Max_cycle;Signal;HPM_P1;HPM_P2
2023/04/26 00:01:57;;;;;;;8.35;4.53;;;15.10;99.90;;;;;;4958115;28;20027;-92
2023/04/26 00:04:24;;;;;;;16.30;5.38;;;15.10;99.90;;;;;;4957888;28;20027;-90
2023/04/26 00:06:50;;;;;;;10.63;4.53;;;15.00;99.90;;;;;;4957880;28;20023;-92
2023/04/26 00:09:20;;;;;;;8.05;4.22;;;15.00;99.90;;;;;;4957746;29;20031;-91
2023/04/26 00:11:50;;;;;;;9.45;4.68;;;15.00;99.90;;;;;;4957792;28;20038;-92
2023/04/26 00:14:16;;;;;;;10.57;4.47;;;15.00;99.90;;;;;;4957490;28;20059;-92
2023/04/26 00:16:43;;;;;;;11.98;5.10;;;15.00;99.90;;;;;;4957590;28;20067;-90
2023/04/26 00:19:10;;;;;;;6.50;4.32;;;14.90;99.90;;;;;;4957853;28;20019;-91
2023/04/26 00:21:38;;;;;;;9.98;4.68;;;14.90;99.90;;;;;;4968212;28;20397;-90
2023/04/26 00:24:04;;;;;;;9.50;4.05;;;14.90;99.90;;;;;;4996289;28;20050;-93
2023/04/26 00:26:33;;;;;;;9.88;3.97;;;14.90;99.90;;;;;;4996189;28;20034;-89
2023/04/26 00:29:01;;;;;;;14.38;4.40;;;14.90;99.90;;;;;;4995855;28;20034;-92
2023/04/26 00:31:28;;;;;;;10.15;4.40;;;14.80;99.90;;;;;;4996162;28;20031;-90
2023/04/26 00:33:54;;;;;;;8.40;3.90;;;14.80;99.90;;;;;;4996126;28;20034;-89
2023/04/26 00:36:20;;;;;;;6.95;4.10;;;14.80;99.90;;;;;;4996005;28;20088;-91
2023/04/26 00:38:47;;;;;;;6.40;3.97;;;14.80;99.90;;;;;;4996260;28;20443;-89
2023/04/26 00:41:14;;;;;;;9.90;4.28;;;14.90;99.90;;;;;;4995912;28;20033;-90
2023/04/26 00:43:40;;;;;;;10.00;4.05;;;14.80;99.90;;;;;;4996021;28;20037;-91
2023/04/26 00:46:09;;;;;;;8.50;3.90;;;14.80;99.90;;;;;;4995895;28;20026;-92
2023/04/26 00:48:38;;;;;;;6.65;4.00;;;14.70;99.90;;;;;;4995820;28;20435;-91
2023/04/26 00:51:05;;;;;;;6.70;4.00;;;14.70;99.90;;;;;;4995873;28;20117;-89
2023/04/26 00:53:34;;;;;;;8.05;4.00;;;14.70;99.90;;;;;;4995788;28;20022;-91
2023/04/26 00:56:01;;;;;;;11.07;3.95;;;14.70;99.90;;;;;;4995807;28;20045;-91
2023/04/26 00:58:28;;;;;;;7.43;4.78;;;14.80;99.90;;;;;;4996112;28;20023;-90
2023/04/26 01:00:54;;;;;;;7.07;4.45;;;14.80;99.90;;;;;;4995643;28;20111;-89
2023/04/26 01:03:21;;;;;;;9.43;4.82;;;14.80;99.90;;;;;;4996154;28;20081;-91
2023/04/26 01:05:51;;;;;;;7.90;5.00;;;14.80;99.90;;;;;;4995636;28;20165;-91
2023/04/26 01:08:19;;;;;;;8.55;5.40;;;14.80;99.90;;;;;;4995476;28;20109;-89
2023/04/26 01:10:48;;;;;;;11.48;5.40;;;14.80;99.90;;;;;;4995582;28;20030;-90
2023/04/26 01:13:15;;;;;;;8.63;5.90;;;14.80;99.90;;;;;;4992255;28;20030;-90
2023/04/26 01:15:47;;;;;;;9.13;6.07;;;14.80;99.90;;;;;;4989373;28;20057;-90
2023/04/26 01:18:14;;;;;;;13.10;5.90;;;14.80;99.90;;;;;;4995502;28;20406;-90
2023/04/26 01:20:41;;;;;;;6.80;6.20;;;14.80;99.90;;;;;;4995452;28;20100;-91
2023/04/26 01:23:11;;;;;;;7.03;6.10;;;14.80;99.90;;;;;;4995154;28;20034;-89
2023/04/26 01:25:38;;;;;;;9.77;6.47;;;14.70;99.90;;;;;;4995318;28;20049;-91
2023/04/26 01:28:04;;;;;;;7.40;6.30;;;14.70;99.90;;;;;;4995007;28;20085;-90
2023/04/26 01:30:31;;;;;;;9.13;6.18;;;14.70;99.90;;;;;;4995094;28;20057;-91
2023/04/26 01:32:57;;;;;;;7.22;5.95;;;14.70;99.90;;;;;;4995016;28;20030;-92
2023/04/26 01:35:25;;;;;;;6.78;6.10;;;14.60;99.90;;;;;;4995199;28;20053;-91
2023/04/26 01:37:51;;;;;;;7.30;6.00;;;14.60;99.90;;;;;;4995154;28;20033;-90
2023/04/26 01:40:18;;;;;;;8.90;5.93;;;14.60;99.90;;;;;;4994209;28;20026;-90
2023/04/26 01:42:44;;;;;;;12.00;6.32;;;14.50;99.90;;;;;;4994690;28;20068;-91
2023/04/26 01:45:11;;;;;;;7.90;5.57;;;14.50;99.90;;;;;;4994823;28;20034;-91
2023/04/26 01:47:57;;;;;;;8.57;5.50;;;14.50;99.90;;;;;;4995553;28;20065;-91
2023/04/26 01:50:25;;;;;;;7.10;5.10;;;14.40;99.90;;;;;;4994774;28;20030;-92
2023/04/26 01:52:52;;;;;;;6.32;4.90;;;14.30;99.90;;;;;;4994588;28;20391;-89
2023/04/26 01:55:18;;;;;;;5.68;5.18;;;14.30;99.90;;;;;;4994395;28;20491;-90
2023/04/26 01:57:45;;;;;;;9.68;5.47;;;14.30;99.90;;;;;;4994809;28;20504;-90
2023/04/26 02:00:11;;;;;;;9.77;5.40;;;14.20;99.90;;;;;;4994636;28;20057;-90
2023/04/26 02:02:41;;;;;;;10.23;4.95;;;14.20;99.90;;;;;;4994918;28;20027;-90
2023/04/26 02:05:09;;;;;;;10.27;4.88;;;14.20;99.90;;;;;;4994626;28;20117;-91
2023/04/26 02:07:36;;;;;;;7.22;4.63;;;14.20;99.90;;;;;;4994554;28;20030;-91
2023/04/26 02:10:02;;;;;;;7.60;4.80;;;14.20;99.90;;;;;;4994521;28;20031;-91
2023/04/26 02:12:29;;;;;;;6.65;4.50;;;14.20;99.90;;;;;;4994254;28;20029;-92
2023/04/26 02:14:55;;;;;;;7.55;4.50;;;14.30;99.90;;;;;;4994062;28;20491;-92
2023/04/26 02:17:22;;;;;;;7.80;4.55;;;14.30;99.90;;;;;;4989568;28;20118;-92
2023/04/26 02:19:49;;;;;;;6.95;4.80;;;14.30;99.90;;;;;;4955618;28;20027;-90
2023/04/26 02:22:22;;;;;;;7.82;4.70;;;14.30;99.90;;;;;;4955357;28;20033;-91
2023/04/26 02:24:49;;;;;;;9.50;4.72;;;14.30;99.90;;;;;;4955223;28;20126;-92
2023/04/26 02:27:15;;;;;;;7.55;4.82;;;14.30;99.90;;;;;;4955387;28;20492;-92
2023/04/26 02:29:42;;;;;;;9.68;4.50;;;14.30;99.90;;;;;;4955307;28;20035;-92
2023/04/26 02:32:08;;;;;;;5.72;4.53;;;14.30;99.90;;;;;;4955663;28;20547;-91
2023/04/26 02:34:35;;;;;;;8.13;4.65;;;14.30;99.90;;;;;;4955316;28;20075;-91
2023/04/26 02:37:01;;;;;;;8.90;4.40;;;14.30;99.90;;;;;;4955440;28;20146;-91
2023/04/26 02:39:27;;;;;;;9.73;4.60;;;14.30;99.90;;;;;;4955399;28;20031;-91
2023/04/26 02:41:54;;;;;;;11.07;4.43;;;14.20;99.90;;;;;;4955269;28;20027;-91
2023/04/26 02:44:20;;;;;;;11.38;4.57;;;14.30;99.90;;;;;;4955110;28;20030;-91
2023/04/26 02:46:46;;;;;;;9.57;4.30;;;14.20;99.90;;;;;;4955170;28;20023;-92
2023/04/26 02:49:13;;;;;;;4.55;4.03;;;14.20;99.90;;;;;;4955040;28;20085;-91
2023/04/26 02:51:40;;;;;;;7.10;3.85;;;14.10;99.90;;;;;;4955128;28;20555;-91
2023/04/26 02:54:07;;;;;;;6.30;3.95;;;14.10;99.90;;;;;;4955088;28;20058;-92
2023/04/26 02:56:34;;;;;;;5.00;4.20;;;14.00;99.90;;;;;;4954909;28;20488;-91
2023/04/26 02:59:01;;;;;;;6.22;4.10;;;14.00;99.90;;;;;;4955116;28;20477;-92
2023/04/26 03:01:27;;;;;;;8.48;4.63;;;14.00;99.90;;;;;;4954991;28;20034;-91
2023/04/26 03:03:54;;;;;;;7.15;4.25;;;13.90;99.90;;;;;;4955044;28;20482;-88
2023/04/26 03:06:22;;;;;;;6.97;3.97;;;13.90;99.90;;;;;;4955042;28;20031;-90
2023/04/26 03:08:49;;;;;;;10.30;4.05;;;13.90;99.90;;;;;;4954832;28;20058;-90
2023/04/26 03:11:15;;;;;;;10.68;4.68;;;13.80;99.90;;;;;;4955055;29;20038;-88
2023/04/26 03:13:45;;;;;;;7.88;4.20;;;13.80;99.90;;;;;;4954798;28;20047;-90
2023/04/26 03:16:11;;;;;;;4.82;3.85;;;13.70;99.90;;;;;;4954899;29;20046;-89
2023/04/26 03:18:37;;;;;;;5.63;3.65;;;13.70;99.90;;;;;;4954800;28;20035;-88
2023/04/26 03:21:05;;;;;;;6.30;3.90;;;13.70;99.90;;;;;;4955010;29;20035;-89
2023/04/26 03:23:33;;;;;;;5.40;4.00;;;13.60;99.90;;;;;;4954860;28;20034;-89
2023/04/26 03:26:03;;;;;;;4.70;3.80;;;13.70;99.90;;;;;;4954695;29;20114;-89
2023/04/26 03:28:30;;;;;;;6.93;3.85;;;13.70;99.90;;;;;;4954716;28;20480;-90
2023/04/26 03:30:56;;;;;;;7.78;3.80;;;13.70;99.90;;;;;;4955055;28;20488;-90
2023/04/26 03:33:27;;;;;;;6.97;3.50;;;13.60;99.90;;;;;;4954834;28;20042;-91
2023/04/26 03:35:54;;;;;;;7.75;3.63;;;13.60;99.90;;;;;;4954706;28;20043;-91
2023/04/26 03:38:21;;;;;;;6.10;3.95;;;13.60;99.90;;;;;;4954709;28;20073;-89
2023/04/26 03:40:47;;;;;;;8.30;3.95;;;13.50;99.90;;;;;;4954987;28;20066;-89
2023/04/26 03:43:14;;;;;;;8.88;3.85;;;13.40;99.90;;;;;;4954653;28;20027;-88
2023/04/26 03:45:40;;;;;;;6.30;3.70;;;13.30;99.90;;;;;;4954685;29;20038;-89
2023/04/26 03:48:06;;;;;;;11.07;4.15;;;13.30;99.90;;;;;;4954563;28;20123;-90
2023/04/26 03:50:33;;;;;;;4.22;3.65;;;13.30;99.90;;;;;;4954824;28;20063;-89
2023/04/26 03:53:00;;;;;;;8.50;4.00;;;13.30;99.90;;;;;;4954535;28;20054;-89
2023/04/26 03:55:27;;;;;;;6.68;3.50;;;13.30;99.90;;;;;;4954543;28;20613;-89
2023/04/26 04:13:10;;;;;;;7.63;3.63;;;13.40;99.90;;;;;;4958995;28;20042;-90
2023/04/26 04:15:37;;;;;;;5.47;3.40;;;13.30;99.90;;;;;;4985507;28;20039;-91
2023/04/26 04:18:05;;;;;;;6.00;3.63;;;13.40;99.90;;;;;;4967073;28;20083;-89
2023/04/26 04:20:31;;;;;;;9.93;3.95;;;13.40;99.90;;;;;;4957573;28;20118;-90
2023/04/26 04:23:00;;;;;;;6.03;3.97;;;13.40;99.90;;;;;;4960510;28;20481;-88
2023/04/26 04:25:29;;;;;;;7.50;4.20;;;13.40;99.90;;;;;;4996095;28;20499;-91
2023/04/26 04:28:01;;;;;;;5.63;4.20;;;13.40;99.90;;;;;;4983281;28;20031;-89
2023/04/26 04:30:29;;;;;;;5.63;3.88;;;13.40;99.90;;;;;;4957491;28;20114;-90
2023/04/26 04:32:58;;;;;;;8.18;4.40;;;13.30;99.90;;;;;;4957368;28;20027;-90
2023/04/26 04:35:32;;;;;;;10.43;4.40;;;13.40;99.90;;;;;;4957269;28;20039;-88
2023/04/26 04:38:02;;;;;;;5.47;4.35;;;13.30;99.90;;;;;;4957279;28;20101;-90
2023/04/26 04:40:30;;;;;;;8.48;4.40;;;13.30;99.90;;;;;;4965041;28;20369;-91
2023/04/26 04:42:59;;;;;;;5.35;4.55;;;13.40;99.90;;;;;;4976288;28;20031;-91
2023/04/26 04:45:27;;;;;;;5.22;4.70;;;13.40;99.90;;;;;;4976394;28;20054;-90
2023/04/26 04:47:56;;;;;;;6.22;4.90;;;13.50;99.90;;;;;;4976897;28;20054;-90
2023/04/26 04:50:23;;;;;;;7.50;4.78;;;13.60;99.90;;;;;;4973033;28;20023;-89
2023/04/26 04:52:49;;;;;;;5.78;5.18;;;13.70;99.90;;;;;;4957136;28;20032;-90
2023/04/26 04:55:16;;;;;;;7.22;5.75;;;14.00;99.90;;;;;;4957289;28;20032;-90
2023/04/26 04:57:44;;;;;;;6.88;6.32;;;14.50;99.90;;;;;;4969503;28;20030;-90
2023/04/26 05:00:12;;;;;;;8.95;8.05;;;15.30;99.90;;;;;;4972815;28;20388;-93
2023/04/26 05:02:46;;;;;;;11.55;10.48;;;16.50;99.90;;;;;;4956728;28;20503;-91
2023/04/26 05:05:13;;;;;;;15.93;13.23;;;17.80;99.90;;;;;;4956893;28;20117;-91
2023/04/26 05:07:39;;;;;;;15.02;13.82;;;18.80;99.90;;;;;;4956756;28;20034;-93
2023/04/26 05:10:07;;;;;;;16.80;15.80;;;19.70;99.90;;;;;;4956783;28;20039;-93
2023/04/26 05:12:34;;;;;;;18.05;17.00;;;20.40;99.90;;;;;;4956920;28;20023;-92
2023/04/26 05:15:00;;;;;;;19.10;17.77;;;20.90;99.90;;;;;;4955270;28;20051;-89
2023/04/26 05:17:29;;;;;;;19.88;18.50;;;21.00;99.90;;;;;;4956765;28;20066;-91
2023/04/26 05:19:57;;;;;;;19.52;18.33;;;21.50;99.90;;;;;;4956843;28;20089;-92
2023/04/26 05:22:23;;;;;;;20.98;18.85;;;21.80;99.90;;;;;;4956814;28;20494;-90
2023/04/26 05:24:51;;;;;;;20.60;19.00;;;22.10;99.90;;;;;;4956585;28;20042;-90
2023/04/26 05:27:18;;;;;;;20.83;19.30;;;22.30;99.90;;;;;;4956653;28;20035;-91
2023/04/26 05:29:53;;;;;;;20.70;19.05;;;23.70;99.90;;;;;;4956717;28;20039;-91
2023/04/26 05:32:49;;;;;;;19.92;18.63;;;23.10;99.90;;;;;;4960613;28;20039;-89
2023/04/26 05:35:38;;;;;;;20.50;19.10;;;22.90;99.90;;;;;;4969679;28;20059;-90
2023/04/26 05:38:05;;;;;;;20.60;19.15;;;23.30;99.90;;;;;;4956497;28;20074;-90
2023/04/26 05:40:32;;;;;;;20.80;19.08;;;22.80;99.90;;;;;;4956268;28;20039;-90
2023/04/26 05:43:00;;;;;;;20.60;19.05;;;23.10;99.90;;;;;;4956169;28;20404;-91
2023/04/26 05:45:28;;;;;;;20.15;18.85;;;23.30;99.90;;;;;;4956124;28;20019;-89
2023/04/26 07:09:29;;;;;;;22.40;20.55;;;22.30;99.90;;;;;;5782589;23;20059;-93
2023/04/26 07:12:00;;;;;;;22.13;20.52;;;22.30;99.90;;;;;;4959437;28;20038;-92
2023/04/26 07:14:30;;;;;;;22.20;20.75;;;22.10;99.90;;;;;;4975203;28;20027;-94
2023/04/26 07:16:56;;;;;;;21.90;20.23;;;22.30;99.90;;;;;;4961068;23;20047;-94
2023/04/26 07:19:26;;;;;;;21.73;20.35;;;22.40;99.90;;;;;;4962701;28;20039;-86
2023/04/26 07:21:52;;;;;;;21.50;20.10;;;22.50;99.90;;;;;;4982296;28;20023;-88
2023/04/26 07:24:19;;;;;;;21.27;19.77;;;22.00;99.90;;;;;;4957838;28;20033;-84
2023/04/26 07:26:45;;;;;;;20.55;19.23;;;21.00;99.90;;;;;;4967826;28;20414;-87
2023/04/26 07:29:12;;;;;;;21.73;19.80;;;20.50;99.90;;;;;;4985677;28;20026;-86
2023/04/26 07:31:49;;;;;;;20.65;18.48;;;19.80;99.90;;;;;;4955651;28;20019;-87
2023/04/26 07:34:16;;;;;;;19.92;18.60;;;19.10;99.90;;;;;;4955156;29;20035;-86
2023/04/26 07:36:43;;;;;;;21.08;19.02;;;18.80;99.90;;;;;;4954528;29;20043;-86
2023/04/26 07:39:10;;;;;;;20.13;18.50;;;18.80;99.90;;;;;;4957038;28;20154;-85
2023/04/26 07:41:37;;;;;;;20.80;19.05;;;18.70;99.90;;;;;;4958515;29;20488;-85
2023/04/26 07:44:03;;;;;;;19.90;18.48;;;18.50;99.90;;;;;;4958553;28;20020;-87
2023/04/26 07:46:34;;;;;;;21.95;19.95;;;19.00;99.90;;;;;;4958348;28;20058;-86
2023/04/26 07:49:01;;;;;;;21.88;20.33;;;20.10;99.90;;;;;;4958034;29;20122;-85
2023/04/26 07:51:28;;;;;;;21.83;20.35;;;21.00;99.90;;;;;;4958031;29;20038;-84
2023/04/26 07:53:55;;;;;;;21.85;20.40;;;21.10;99.90;;;;;;4958096;28;20460;-86
2023/04/26 07:56:23;;;;;;;21.55;20.13;;;21.90;99.90;;;;;;4963868;28;20073;-84
2023/04/26 07:58:50;;;;;;;21.20;20.00;;;22.40;99.90;;;;;;4965320;28;20031;-85
2023/04/26 08:01:17;;;;;;;22.25;20.90;;;22.60;99.90;;;;;;4966338;28;20038;-84
2023/04/26 09:14:50;;;;;;;17.30;15.75;;;17.90;99.90;;;;;;5323807;23;20062;-90
2023/04/26 09:17:35;;;;;;;17.83;15.80;;;17.50;99.90;;;;;;4996571;28;20565;-90
2023/04/26 09:20:20;;;;;;;17.95;16.25;;;17.30;99.90;;;;;;4979286;28;20118;-90
2023/04/26 09:22:51;;;;;;;17.20;15.50;;;17.30;99.90;;;;;;4995192;28;20030;-89
2023/04/26 09:25:27;;;;;;;17.65;16.15;;;17.50;99.90;;;;;;4978768;28;20037;-90
2023/04/26 09:27:53;;;;;;;17.23;15.98;;;18.30;99.90;;;;;;4975836;28;20141;-91
2023/04/26 09:30:21;;;;;;;18.50;16.60;;;18.60;99.90;;;;;;4959692;28;20058;-91
2023/04/26 09:32:57;;;;;;;17.75;16.48;;;18.60;99.90;;;;;;4975720;28;20034;-90
2023/04/26 09:35:38;;;;;;;18.77;17.10;;;18.70;99.90;;;;;;4975554;28;20039;-89
2023/04/26 09:45:24;;;;;;;17.42;16.33;;;19.70;99.90;;;;;;4915937;23;20052;-92
2023/04/26 09:51:50;;;;;;;;;;;;;;;;;;;;;
2023/04/26 09:55:15;;;;;;;17.50;16.15;;;18.60;99.90;;;;;;4891790;29;20048;-93
2023/04/26 11:13:41;;;;;;;18.13;16.77;;;18.80;99.90;;;;;;6094446;23;20045;31
2023/04/26 11:16:12;;;;;;;16.57;15.67;;;18.60;99.90;;;;;;4958530;28;20044;-91
2023/04/26 11:18:41;;;;;;;17.10;16.10;;;17.90;99.90;;;;;;4975965;28;20382;-91
2023/04/26 11:21:08;;;;;;;17.70;16.52;;;17.50;99.90;;;;;;4957217;28;20212;-90
2023/04/26 11:23:36;;;;;;;17.58;16.67;;;17.70;99.90;;;;;;4955461;28;20115;-90
2023/04/26 11:26:07;;;;;;;17.88;16.65;;;17.80;99.90;;;;;;4971422;28;20036;-91
2023/04/26 11:28:35;;;;;;;18.27;17.05;;;17.90;99.90;;;;;;4923565;29;20047;-89
2023/04/26 11:31:06;;;;;;;18.33;17.17;;;18.30;99.90;;;;;;4926116;29;20055;-89
2023/04/26 11:33:33;;;;;;;18.17;17.05;;;18.60;99.90;;;;;;4926490;29;20043;-90
2023/04/26 11:36:00;;;;;;;18.13;16.83;;;18.60;99.90;;;;;;4924840;29;20035;-92
2023/04/26 11:38:27;;;;;;;18.50;17.38;;;18.50;99.90;;;;;;4923909;29;20027;-91
2023/04/26 11:43:42;;;;;;;20.63;17.50;;;18.70;99.90;;;;;;4970377;23;20043;-93
2023/04/26 11:46:46;;;;;;;18.88;17.80;;;18.50;99.90;;;;;;4976891;28;20241;-93
2023/04/26 11:49:13;;;;;;;19.35;17.98;;;18.90;99.90;;;;;;4943014;28;20131;-92
2023/04/26 11:51:40;;;;;;;19.08;17.95;;;19.10;99.90;;;;;;4944757;28;20027;-93
2023/04/26 11:54:07;;;;;;;18.77;17.67;;;19.00;99.90;;;;;;4961108;28;20027;-93
2023/04/26 11:56:34;;;;;;;18.55;17.38;;;18.90;99.90;;;;;;4946221;28;20555;-93
2023/04/26 11:59:00;;;;;;;18.77;17.58;;;18.80;99.90;;;;;;4962309;28;20033;-92
2023/04/26 12:13:21;;;;;;;18.67;17.15;;;19.00;99.90;;;;;;4957607;28;20038;-93
2023/04/26 12:18:48;;;;;;;18.40;17.08;;;18.10;99.90;;;;;;5068316;28;20113;-94
2023/04/26 12:21:53;;;;;;;18.20;17.00;;;18.30;99.90;;;;;;5034404;28;20041;-93
2023/04/26 12:24:33;;;;;;;17.30;16.23;;;18.70;99.90;;;;;;4877862;29;20450;-93
2023/04/26 12:27:01;;;;;;;17.33;16.08;;;18.90;99.90;;;;;;4900413;29;20033;-94
2023/04/26 12:29:38;;;;;;;17.02;15.95;;;18.40;99.90;;;;;;4919318;29;20040;-95
2023/04/26 12:32:05;;;;;;;17.52;16.17;;;18.40;99.90;;;;;;4919718;29;20051;-93
2023/04/26 12:34:35;;;;;;;17.20;16.10;;;18.30;99.90;;;;;;4971395;23;20054;-94
2023/04/26 12:37:03;;;;;;;17.02;15.80;;;18.40;99.90;;;;;;4999776;28;20042;-89
2023/04/26 21:07:29;;;;;;;11.10;9.95;;;12.50;99.90;;;;;;6011949;23;20047;-87
2023/04/26 21:09:55;;;;;;;14.25;10.10;;;12.50;99.90;;;;;;4998660;28;20042;-88
2023/04/26 21:12:21;;;;;;;20.38;10.30;;;12.50;99.90;;;;;;4999036;28;20113;-86
2023/04/26 21:14:48;;;;;;;10.77;9.80;;;12.50;99.90;;;;;;4998689;28;20080;-88
2023/04/26 21:17:17;;;;;;;13.00;9.70;;;12.50;99.90;;;;;;4982418;28;20041;-88
2023/04/26 21:19:43;;;;;;;11.18;10.02;;;12.60;99.90;;;;;;5001270;28;20033;-87
2023/04/26 21:22:10;;;;;;;20.63;9.60;;;12.60;99.90;;;;;;5001523;28;20025;-89
2023/04/26 21:24:37;;;;;;;13.55;9.45;;;12.70;99.90;;;;;;5001885;28;20025;-88
2023/04/26 21:27:03;;;;;;;11.45;10.15;;;12.70;99.90;;;;;;5001824;28;20029;-88
2023/04/26 21:29:30;;;;;;;10.43;9.48;;;12.80;99.90;;;;;;5001821;28;20025;-88
2023/04/26 21:31:57;;;;;;;11.30;9.40;;;12.80;99.90;;;;;;5001894;28;20029;-87
2023/04/26 21:34:23;;;;;;;10.43;9.32;;;12.80;99.90;;;;;;5001775;28;20032;-86
2023/04/26 21:36:50;;;;;;;10.38;8.93;;;12.80;99.90;;;;;;4987700;28;20398;-88
2023/04/26 21:39:17;;;;;;;10.13;9.13;;;12.90;99.90;;;;;;4998238;28;20113;-88
2023/04/26 21:41:43;;;;;;;13.43;8.88;;;12.90;99.90;;;;;;4982719;28;20033;-88
2023/04/26 21:44:10;;;;;;;10.65;9.20;;;12.90;99.90;;;;;;4998269;28;20041;-87
2023/04/26 21:46:37;;;;;;;11.20;9.95;;;12.90;99.90;;;;;;4981925;28;20030;-88
2023/04/26 21:49:03;;;;;;;11.23;9.63;;;12.80;99.90;;;;;;4997983;28;20124;-89
2023/04/26 21:51:30;;;;;;;11.23;9.38;;;12.80;99.90;;;;;;4982049;28;20026;-89
2023/04/26 21:53:57;;;;;;;10.00;9.10;;;12.80;99.90;;;;;;4982434;28;20049;-88
2023/04/26 21:56:23;;;;;;;13.73;9.73;;;12.80;99.90;;;;;;4981158;28;20095;-89
2023/04/26 21:58:49;;;;;;;13.18;9.73;;;12.80;99.90;;;;;;4981531;28;20022;-88
2023/04/26 22:01:15;;;;;;;11.88;9.75;;;12.80;99.90;;;;;;4987543;28;20391;-89
2023/04/26 22:03:42;;;;;;;12.77;9.25;;;12.80;99.90;;;;;;5001154;28;20025;-89
2023/04/26 22:06:08;;;;;;;12.88;9.45;;;12.80;99.90;;;;;;5001032;28;20035;-90
2023/04/26 22:08:35;;;;;;;11.35;9.82;;;12.70;99.90;;;;;;4997843;28;20081;-90
2023/04/26 22:11:01;;;;;;;10.82;9.45;;;12.70;99.90;;;;;;4997755;28;20034;-90
2023/04/26 22:13:29;;;;;;;14.15;10.23;;;12.70;99.90;;;;;;5014252;28;20084;-91
2023/04/26 22:15:55;;;;;;;10.85;9.80;;;12.70;99.90;;;;;;4997769;28;20034;-90
2023/04/26 22:18:22;;;;;;;12.35;9.80;;;12.70;99.90;;;;;;5013981;28;20030;-92
2023/04/26 22:20:48;;;;;;;11.43;9.82;;;12.70;99.90;;;;;;4997541;28;20065;-92
2023/04/26 22:23:14;;;;;;;16.42;9.98;;;12.60;99.90;;;;;;4997565;28;20038;-91
2023/04/26 22:25:41;;;;;;;13.45;8.05;;;12.60;99.90;;;;;;4997464;28;20030;-92
2023/04/26 22:28:07;;;;;;;17.75;8.30;;;12.60;99.90;;;;;;4997449;28;20362;-91
2023/04/26 22:30:33;;;;;;;14.55;8.70;;;12.60;99.90;;;;;;5000568;28;20053;-90
2023/04/26 22:33:00;;;;;;;13.07;8.50;;;12.60;99.90;;;;;;5013552;28;20045;-90
2023/04/26 22:35:28;;;;;;;12.05;7.30;;;12.70;99.90;;;;;;4997682;28;20440;-89
2023/04/26 22:37:55;;;;;;;11.27;7.68;;;12.70;99.90;;;;;;5013598;28;20438;-89
2023/04/26 22:40:21;;;;;;;21.20;8.52;;;12.70;99.90;;;;;;4997776;28;20022;-87
2023/04/26 22:42:48;;;;;;;12.27;6.80;;;12.70;99.90;;;;;;4997443;28;20061;-89
2023/04/26 22:45:14;;;;;;;11.02;7.38;;;12.60;99.90;;;;;;4997150;28;20026;-90
2023/04/26 22:47:40;;;;;;;18.15;8.98;;;12.60;99.90;;;;;;4997105;28;20057;-90
2023/04/26 22:50:07;;;;;;;14.02;8.23;;;12.40;99.90;;;;;;5013787;28;20164;-89
2023/04/26 22:52:35;;;;;;;10.02;7.25;;;12.20;99.90;;;;;;4997434;28;20029;-89
2023/04/26 22:55:01;;;;;;;11.68;7.18;;;12.00;99.90;;;;;;4996617;28;20060;-89
2023/04/26 22:57:28;;;;;;;15.55;7.20;;;11.90;99.90;;;;;;4996890;28;20107;-89
2023/04/26 22:59:54;;;;;;;12.60;6.53;;;11.90;99.90;;;;;;5015653;28;20029;-90
2023/04/26 23:02:21;;;;;;;16.50;6.85;;;11.70;99.90;;;;;;5016797;28;20577;-89
2023/04/26 23:04:47;;;;;;;11.05;7.35;;;11.70;99.90;;;;;;5033085;28;20033;-91
2023/04/26 23:07:13;;;;;;;12.38;6.97;;;11.70;99.90;;;;;;5016600;28;20030;-92
2023/04/26 23:09:40;;;;;;;11.05;6.03;;;11.60;99.90;;;;;;5022358;28;20502;-90
2023/04/26 23:12:06;;;;;;;12.60;6.70;;;11.50;99.90;;;;;;5023223;28;20033;-87
2023/04/26 23:14:33;;;;;;;10.50;6.35;;;11.50;99.90;;;;;;5039811;28;20045;-89
2023/04/26 23:17:00;;;;;;;9.95;5.40;;;11.50;99.90;;;;;;5023153;28;20029;-90
2023/04/26 23:19:27;;;;;;;14.93;5.95;;;11.50;99.90;;;;;;5022950;28;20026;-89
2023/04/26 23:21:53;;;;;;;9.68;5.63;;;11.50;99.90;;;;;;5023068;28;20382;-92
2023/04/26 23:24:19;;;;;;;13.65;6.72;;;11.50;99.90;;;;;;5023030;28;20025;-88
2023/04/26 23:26:46;;;;;;;14.23;5.72;;;11.50;99.90;;;;;;5023691;28;20026;-90
2023/04/26 23:29:12;;;;;;;13.85;6.07;;;11.50;99.90;;;;;;5023023;28;20060;-90
2023/04/26 23:31:39;;;;;;;12.75;5.35;;;11.50;99.90;;;;;;5022945;28;20021;-91
2023/04/26 23:34:05;;;;;;;17.05;5.80;;;11.60;99.90;;;;;;5039441;28;20033;-89
2023/04/26 23:36:32;;;;;;;14.07;6.85;;;11.50;99.90;;;;;;5023000;28;20478;-88
2023/04/26 23:38:58;;;;;;;19.42;6.10;;;11.60;99.90;;;;;;5039218;28;20108;-90
2023/04/26 23:41:24;;;;;;;12.80;5.70;;;11.50;99.90;;;;;;5022828;28;20025;-88
2023/04/26 23:43:51;;;;;;;11.30;5.38;;;11.50;99.90;;;;;;5039282;28;20112;-91
2023/04/26 23:46:18;;;;;;;25.17;8.05;;;11.50;99.90;;;;;;5022725;28;20025;-90
2023/04/26 23:48:44;;;;;;;14.50;6.75;;;11.50;99.90;;;;;;5039200;28;20041;-92
2023/04/26 23:51:11;;;;;;;15.80;6.03;;;11.40;99.90;;;;;;5022729;28;20024;-91
2023/04/26 23:53:38;;;;;;;16.45;5.47;;;11.30;99.90;;;;;;5022844;28;20033;-91
2023/04/26 23:56:06;;;;;;;11.85;5.55;;;11.30;99.90;;;;;;5022789;28;20116;-92
2023/04/26 23:58:33;;;;;;;10.55;5.47;;;11.20;99.90;;;;;;5032035;28;20065;-90
